createdAt,value
2019-06-10T00:04:23.022Z,19.38
2019-06-10T00:07:46.436Z,19.4
2019-06-10T00:14:35.656Z,19.42
2019-06-10T00:18:46.159Z,19.42
2019-06-10T00:22:12.514Z,19.39
2019-06-10T00:29:11.291Z,19.29
2019-06-10T00:32:35.391Z,19.25
2019-06-10T00:36:13.382Z,19.25
2019-06-10T00:39:36.925Z,19.19
2019-06-10T00:43:13.032Z,19.16
2019-06-10T00:46:36.853Z,19.11
2019-06-10T00:50:15.020Z,19.08
2019-06-10T00:53:38.538Z,19.03
2019-06-10T00:57:05.946Z,19.02
2019-06-10T01:00:32.094Z,18.99
2019-06-10T01:07:18.925Z,18.88
2019-06-10T01:10:44.851Z,18.87
2019-06-10T01:14:12.482Z,18.87
2019-06-10T01:21:04.029Z,18.92
2019-06-10T01:24:27.581Z,18.92
2019-06-10T01:27:52.243Z,18.91
2019-06-10T01:31:24.878Z,18.88
2019-06-10T01:34:51.179Z,18.83
2019-06-10T01:38:18.275Z,18.79
2019-06-10T01:41:41.871Z,18.78
2019-06-10T01:45:06.739Z,18.77
2019-06-10T01:48:52.361Z,18.74
2019-06-10T01:52:21.547Z,18.71
2019-06-10T01:55:45.042Z,18.72
2019-06-10T02:02:45.833Z,18.65
2019-06-10T02:06:26.016Z,18.56
2019-06-10T02:13:18.096Z,18.41
2019-06-10T02:16:42.223Z,18.33
2019-06-10T02:23:32.331Z,18.25
2019-06-10T02:26:55.743Z,18.26
2019-06-10T02:30:56.368Z,18.26
2019-06-10T02:34:28.277Z,18.23
2019-06-10T02:37:54.767Z,18.25
2019-06-10T02:41:36.821Z,18.28
2019-06-10T02:45:04.765Z,18.32
2019-06-10T02:48:36.087Z,18.37
2019-06-10T02:52:03.655Z,18.42
2019-06-10T02:55:35.730Z,18.47
2019-06-10T03:02:37.095Z,18.53
2019-06-10T03:06:09.231Z,18.53
2019-06-10T03:09:36.668Z,18.52
2019-06-10T03:13:03.092Z,18.53
2019-06-10T03:16:26.671Z,18.54
2019-06-10T03:19:54.220Z,18.51
2019-06-10T03:23:18.694Z,18.47
2019-06-10T03:26:43.626Z,18.48
2019-06-10T03:30:58.746Z,18.42
2019-06-10T03:34:48.244Z,18.38
2019-06-10T03:38:13.106Z,18.35
2019-06-10T03:41:36.546Z,18.33
2019-06-10T03:45:00.036Z,18.31
2019-06-10T03:51:53.687Z,18.27
2019-06-10T03:55:19.476Z,18.29
2019-06-10T03:58:43.883Z,18.33
2019-06-10T04:05:33.444Z,18.31
2019-06-10T04:08:56.898Z,18.32
2019-06-10T04:15:43.920Z,18.48
2019-06-10T04:19:07.365Z,18.6
2019-06-10T04:25:56.880Z,18.92
2019-06-10T04:29:29.042Z,19.03
2019-06-10T04:36:18.527Z,19.31
2019-06-10T04:39:43.498Z,19.44
2019-06-10T04:46:32.880Z,19.59
2019-06-10T04:49:56.376Z,19.63
2019-06-10T04:56:53.615Z,19.84
2019-06-10T05:00:17.124Z,20.06
2019-06-10T05:03:43.125Z,20.39
2019-06-10T05:07:06.904Z,21.46
2019-06-10T05:10:33.427Z,22.12
2019-06-10T05:13:56.896Z,22.09
2019-06-10T05:17:29.606Z,21.96
2019-06-10T05:20:59.321Z,21.91
2019-06-10T05:27:58.300Z,21.74
2019-06-10T05:31:35.434Z,21.75
2019-06-10T05:38:35.497Z,21.98
2019-06-10T05:41:59.019Z,22.16
2019-06-10T05:45:35.193Z,22.45
2019-06-10T05:48:58.790Z,22.7
2019-06-10T05:52:29.282Z,23.24
2019-06-10T05:59:17.233Z,25.28
2019-06-10T06:02:43.505Z,26.06
2019-06-10T06:06:06.957Z,26.32
2019-06-10T06:09:35.832Z,26.28
2019-06-10T06:12:59.260Z,26.21
2019-06-10T06:23:12.954Z,26.15
2019-06-10T06:53:56.017Z,22.69
2019-06-10T06:57:22.225Z,21.92
2019-06-10T07:01:15.210Z,22.2
2019-06-10T07:04:43.604Z,22.54
2019-06-10T07:08:13.653Z,22.65
2019-06-10T07:15:12.370Z,23.17
2019-06-10T07:18:54.689Z,24.01
2019-06-10T07:25:48.334Z,25.1
2019-06-10T07:32:49.387Z,25.26
2019-06-10T07:36:17.830Z,25.44
2019-06-10T07:39:46.146Z,25.28
2019-06-10T07:43:09.695Z,25.09
2019-06-10T07:46:39.572Z,25.01
2019-06-10T07:50:03.795Z,24.59
2019-06-10T07:56:54.533Z,24.58
2019-06-10T08:00:18.040Z,24.54
2019-06-10T08:06:38.404Z,24.97
2019-06-10T08:10:03.715Z,25.49
2019-06-10T08:13:27.070Z,26.01
2019-06-10T08:16:53.757Z,25.9
2019-06-10T08:20:17.190Z,26.49
2019-06-10T08:23:49.002Z,27.45
2019-06-10T08:27:12.798Z,27.58
2019-06-10T08:33:59.697Z,26.11
2019-06-10T08:37:24.267Z,26.38
2019-06-10T08:40:49.266Z,26.68
2019-06-10T08:44:13.203Z,26.64
2019-06-10T08:47:38.846Z,26.97
2019-06-10T08:51:04.743Z,26.92
2019-06-10T08:54:28.146Z,27.22
2019-06-10T08:57:54.584Z,27.76
2019-06-10T09:25:58.215Z,30.19
2019-06-10T09:33:04.877Z,30.39
2019-06-10T09:40:03.764Z,29.89
2019-06-10T09:47:03.628Z,30.27
2019-06-10T09:54:07.445Z,30.68
2019-06-10T09:57:32.957Z,31.26
2019-06-10T10:00:58.956Z,31.96
2019-06-10T10:04:24.356Z,32.27
2019-06-10T10:07:57.795Z,32.24
2019-06-10T10:11:29.097Z,32.26
2019-06-10T10:14:57.192Z,31.92
2019-06-10T10:18:20.589Z,31.65
2019-06-10T10:21:59.132Z,31.67
2019-06-10T10:25:24.323Z,31.75
2019-06-10T10:28:57.583Z,31.39
2019-06-10T10:32:23.990Z,31
2019-06-10T10:35:51.143Z,30.79
2019-06-10T10:39:14.811Z,30.79
2019-06-10T10:43:32.938Z,30.62
2019-06-10T10:46:57.638Z,30.71
2019-06-10T10:50:23.224Z,30.92
2019-06-10T10:54:37.003Z,31.08
2019-06-10T10:58:02.991Z,31.09
2019-06-10T11:01:26.583Z,31.22
2019-06-10T11:04:56.769Z,31.67
2019-06-10T11:08:23.226Z,31.68
2019-06-10T11:15:14.488Z,32.11
2019-06-10T11:18:37.943Z,32.2
2019-06-10T11:22:03.650Z,31.75
2019-06-10T11:25:27.084Z,31.12
2019-06-10T11:28:56.182Z,30.83
2019-06-10T11:32:19.586Z,30.95
2019-06-10T11:35:43.564Z,31.31
2019-06-10T11:39:07.064Z,30.84
2019-06-10T11:42:33.625Z,30.24
2019-06-10T11:46:08.620Z,30.86
2019-06-10T11:49:32.016Z,31.12
2019-06-10T11:53:04.693Z,31.33
2019-06-10T11:56:28.142Z,31.52
2019-06-10T11:59:59.814Z,31.38
2019-06-10T12:03:23.875Z,31.14
2019-06-10T12:06:48.354Z,31.59
2019-06-10T12:10:13.621Z,32.09
2019-06-10T12:13:37.130Z,31.96
2019-06-10T12:18:07.676Z,31.87
2019-06-10T12:25:40.177Z,31.45
2019-06-10T12:29:06.589Z,31.36
2019-06-10T12:32:30.119Z,31.21
2019-06-10T12:36:07.873Z,31.22
2019-06-10T12:39:31.305Z,31.72
2019-06-10T12:43:08.064Z,32
2019-06-10T12:46:33.521Z,31.89
2019-06-10T12:53:24.463Z,31.65
2019-06-10T12:56:47.961Z,31.13
2019-06-10T13:00:27.019Z,31.11
2019-06-10T13:03:55.928Z,31.3
2019-06-10T13:07:19.504Z,31.68
2019-06-10T13:10:43.808Z,32.18
2019-06-10T13:14:09.146Z,32.42
2019-06-10T13:17:32.620Z,32.6
2019-06-10T13:21:18.047Z,32.41
2019-06-10T13:30:26.125Z,32.35
2019-06-10T13:33:49.580Z,32.26
2019-06-10T13:37:16.875Z,32.04
2019-06-10T13:40:43.552Z,31.87
2019-06-10T13:44:08.574Z,32.14
2019-06-10T13:47:33.932Z,31.16
2019-06-10T13:50:58.811Z,31.21
2019-06-10T13:54:23.297Z,31.56
2019-06-10T13:57:46.660Z,31.41
2019-06-10T14:01:22.764Z,31.46
2019-06-10T14:04:46.236Z,31.65
2019-06-10T14:08:15.884Z,31.78
2019-06-10T14:11:39.337Z,32
2019-06-10T14:15:17.307Z,31.96
2019-06-10T14:18:42.960Z,31.66
2019-06-10T14:22:16.546Z,31.65
2019-06-10T14:25:42.536Z,30.79
2019-06-10T14:29:12.467Z,30.01
2019-06-10T14:46:18.145Z,30.12
2019-06-10T14:49:43.273Z,30.02
2019-06-10T14:53:08.907Z,30.04
2019-06-10T14:56:56.451Z,30.08
2019-06-10T15:00:20.576Z,29.9
2019-06-10T15:03:43.997Z,29.62
2019-06-10T15:07:09.528Z,28.93
2019-06-10T15:10:33.044Z,28.82
2019-06-10T15:13:57.869Z,29.14
2019-06-10T15:17:21.315Z,29.15
2019-06-10T15:20:44.913Z,29.54
2019-06-10T15:24:10.062Z,29.96
2019-06-10T15:27:34.691Z,30.02
2019-06-10T15:30:58.051Z,30.04
2019-06-10T15:34:21.423Z,29.7
2019-06-10T15:37:44.840Z,29.33
2019-06-10T15:41:16.862Z,29.34
2019-06-10T15:44:56.567Z,29.45
2019-06-10T15:48:26.087Z,29.8
2019-06-10T15:51:49.437Z,29.86
2019-06-10T15:56:39.626Z,29.64
2019-06-10T16:00:29.780Z,29.63
2019-06-10T16:03:53.608Z,29.54
2019-06-10T16:07:25.898Z,29.34
2019-06-10T16:10:49.282Z,29.35
2019-06-10T16:14:14.927Z,29.46
2019-06-10T16:17:38.291Z,29.53
2019-06-10T16:21:05.172Z,29.78
2019-06-10T16:24:28.595Z,29.81
2019-06-10T16:27:55.174Z,29.7
2019-06-10T16:31:20.347Z,29.39
2019-06-10T16:34:44.617Z,29.09
2019-06-10T16:38:07.959Z,29.1
